Impacts TAF Board
For situational awareness. Not to be used for flight planning purposes.
IDs:

KIAD - Washington/Dulles In, VA, US

Issued at 1439 UTC 20 Jan 2019
Updated at 1715 UTC 20 Jan 2019
Potential Impact None Slight Moderate High
Time1652Z 20/18Z 20/19Z 20/20Z 20/21Z 20/22Z 20/23Z 21/00Z 21/01Z 21/02Z 21/03Z 21/04Z 21/05Z 21/06Z>>
Type OBS PRVL PRVL PRVL PRVL PRVL PRVL PRVL PRVL PRVL PRVL PRVL PRVL PRVL
VIS 10 >6 >6 >6 >6 >6 >6 >6 >6 >6 >6 >6 >6 >6
CIG 110 35 35 35 35 35 35 -- -- -- -- -- -- --
Cover BKN BKN BKN BKN BKN BKN BKN SCT SCT SCT SCT SCT SCT SCT
FltCat VFR VFR VFR VFR VFR VFR VFR VFR VFR VFR VFR VFR VFR VFR
WX -- -- -- -- -- -- -- -- -- -- -- -- -- --
WDir 310 320 320 320 320 320 320 320 320 320 320 320 320 320
WSpd 31 22 22 22 22 22 22 16 16 16 16 16 16 16
WGst 42 40 40 40 40 40 40 27 27 27 27 27 27 27
Raw TAF
KIAD 201439Z 2015/2118 31019G33KT P6SM BKN030
  FM201800 32022G40KT P6SM BKN035
  FM210000 32016G27KT P6SM SCT035
  FM211500 32020G35KT P6SM SCT035


Raw METAR
KIAD 201652Z 31031G42KT 10SM SCT036 BKN110 01/M06 A2957 RMK AO2 PK WND 32042/1644 SLP014 T00061056 $
KIAD 201552Z 31016G33KT 10SM BKN032 BKN060 BKN120 02/M03 A2954 RMK AO2 PK WND 30034/1458 SLP004 PRESRR T00171028 $
KIAD 201452Z 29019G32KT 10SM BKN029 BKN040 BKN110 03/M01 A2949 RMK AO2 PK WND 29032/1444 PRESRR SLP986 60000 T00331011 53053 $

METAR Board
Radar Display
Forecast Discussion
For situational awareness. Not to be used for flight planning purposes.